Time,TemperatureF,DewpointF,PressureIn,WindDirection,WindDirectionDegrees,WindSpeedMPH,WindSpeedGustMPH,Humidity,HourlyPrecipIn,Conditions,Clouds,dailyrainin,SolarRadiationWatts/m^2,SoftwareType,DateUTC
2013-08-06 00:02:00,73.0,68.0,-100.00,West,279,3.0,6.0,83,0.00,,,0.00,0.000000,,2013-08-06 04:02:00,
2013-08-06 00:33:00,73.0,66.0,-100.00,SSW,207,4.0,7.0,78,0.00,,,0.00,0.000000,,2013-08-06 04:33:00,
2013-08-06 00:44:00,73.0,66.0,-100.00,SSW,207,4.0,7.0,78,0.00,,,0.00,0.000000,,2013-08-06 04:44:00,
2013-08-06 00:54:00,73.0,66.0,-100.00,SSW,207,4.0,7.0,78,0.00,,,0.00,0.000000,,2013-08-06 04:54:00,
2013-08-06 01:02:00,73.0,66.0,-100.00,SSW,207,4.0,7.0,78,0.00,,,0.00,0.000000,,2013-08-06 05:02:00,
2013-08-06 01:43:00,72.0,65.0,-100.00,WNW,288,2.0,8.0,79,0.00,,,0.00,0.000000,,2013-08-06 05:43:00,
2013-08-06 01:53:00,72.0,65.0,-100.00,WNW,288,2.0,8.0,79,0.00,,,0.00,0.000000,,2013-08-06 05:53:00,
2013-08-06 02:02:00,72.0,65.0,-100.00,WNW,288,2.0,8.0,79,0.00,,,0.00,0.000000,,2013-08-06 06:02:00,
2013-08-06 03:32:00,73.0,63.0,-100.00,SE,134,3.0,5.0,70,0.00,,,0.00,0.000000,,2013-08-06 07:32:00,
2013-08-06 03:44:00,73.0,63.0,-100.00,SE,134,3.0,5.0,70,0.00,,,0.00,0.000000,,2013-08-06 07:44:00,
2013-08-06 03:53:00,73.0,63.0,-100.00,SE,134,3.0,5.0,70,0.00,,,0.00,0.000000,,2013-08-06 07:53:00,
2013-08-06 04:02:00,73.0,63.0,-100.00,SE,134,3.0,5.0,70,0.00,,,0.00,0.000000,,2013-08-06 08:02:00,
2013-08-06 04:33:00,73.0,63.0,-100.00,SSE,164,1.0,4.0,72,0.00,,,0.00,0.000000,,2013-08-06 08:33:00,
2013-08-06 04:43:00,73.0,63.0,-100.00,SSE,164,1.0,4.0,72,0.00,,,0.00,0.000000,,2013-08-06 08:43:00,
2013-08-06 04:52:00,73.0,63.0,-100.00,SSE,164,1.0,4.0,72,0.00,,,0.00,0.000000,,2013-08-06 08:52:00,
2013-08-06 05:01:00,73.0,63.0,-100.00,SSE,164,1.0,4.0,72,0.00,,,0.00,0.000000,,2013-08-06 09:01:00,
2013-08-06 05:33:00,72.0,62.0,-100.00,East,88,4.0,5.0,70,0.00,,,0.00,0.000000,,2013-08-06 09:33:00,
2013-08-06 05:43:00,72.0,62.0,-100.00,East,88,4.0,5.0,70,0.00,,,0.00,0.000000,,2013-08-06 09:43:00,
2013-08-06 05:52:00,72.0,62.0,-100.00,East,88,4.0,5.0,70,0.00,,,0.00,0.000000,,2013-08-06 09:52:00,
2013-08-06 06:01:00,72.0,62.0,-100.00,East,88,4.0,5.0,70,0.00,,,0.00,0.000000,,2013-08-06 10:01:00,
2013-08-06 06:32:00,71.0,63.0,-100.00,East,98,4.0,7.0,75,0.00,,,0.00,0.000000,,2013-08-06 10:32:00,
2013-08-06 06:43:00,71.0,63.0,-100.00,East,98,4.0,7.0,75,0.00,,,0.00,0.000000,,2013-08-06 10:43:00,
2013-08-06 06:53:00,71.0,63.0,-100.00,East,98,4.0,7.0,75,0.00,,,0.00,0.000000,,2013-08-06 10:53:00,
2013-08-06 07:02:00,71.0,63.0,-100.00,East,98,4.0,7.0,75,0.00,,,0.00,0.000000,,2013-08-06 11:02:00,
2013-08-06 07:32:00,72.0,62.0,-100.00,South,182,1.0,5.0,72,0.00,,,0.00,2.000000,,2013-08-06 11:32:00,
2013-08-06 07:43:00,72.0,62.0,-100.00,South,182,1.0,5.0,72,0.00,,,0.00,2.000000,,2013-08-06 11:43:00,
2013-08-06 07:53:00,72.0,62.0,-100.00,South,182,1.0,5.0,72,0.00,,,0.00,2.000000,,2013-08-06 11:53:00,
2013-08-06 08:02:00,72.0,62.0,-100.00,South,182,1.0,5.0,72,0.00,,,0.00,2.000000,,2013-08-06 12:02:00,
2013-08-06 08:32:00,74.0,62.0,-100.00,SSE,166,3.0,4.0,67,0.00,,,0.00,68.000000,,2013-08-06 12:32:00,
2013-08-06 08:43:00,74.0,62.0,-100.00,SSE,166,3.0,4.0,67,0.00,,,0.00,68.000000,,2013-08-06 12:43:00,
2013-08-06 08:52:00,74.0,62.0,-100.00,SSE,166,3.0,4.0,67,0.00,,,0.00,68.000000,,2013-08-06 12:52:00,
2013-08-06 09:02:00,74.0,62.0,-100.00,SSE,166,3.0,4.0,67,0.00,,,0.00,68.000000,,2013-08-06 13:02:00,
2013-08-06 09:42:00,74.0,65.0,-100.00,South,170,3.0,6.0,74,0.00,,,0.00,237.000000,,2013-08-06 13:42:00,
2013-08-06 09:53:00,74.0,65.0,-100.00,South,170,3.0,6.0,74,0.00,,,0.00,237.000000,,2013-08-06 13:53:00,
2013-08-06 10:01:00,74.0,65.0,-100.00,South,170,3.0,6.0,74,0.00,,,0.00,237.000000,,2013-08-06 14:01:00,
2013-08-06 10:42:00,74.0,67.0,-100.00,SSW,206,4.0,6.0,78,0.00,,,-99.99,233.000000,,2013-08-06 14:42:00,
2013-08-06 10:53:00,74.0,67.0,-100.00,SSW,206,4.0,6.0,78,0.00,,,-99.99,233.000000,,2013-08-06 14:53:00,
2013-08-06 11:02:00,74.0,67.0,-100.00,SSW,206,4.0,6.0,78,0.00,,,-99.99,233.000000,,2013-08-06 15:02:00,
2013-08-06 11:33:00,78.0,71.0,-100.00,South,183,4.0,7.0,80,0.00,,,0.00,336.000000,,2013-08-06 15:33:00,
2013-08-06 11:44:00,78.0,71.0,-100.00,South,183,4.0,7.0,80,0.00,,,0.00,336.000000,,2013-08-06 15:44:00,
2013-08-06 11:52:00,78.0,71.0,-100.00,South,183,4.0,7.0,80,0.00,,,0.00,336.000000,,2013-08-06 15:52:00,
2013-08-06 12:02:00,78.0,71.0,-100.00,South,183,4.0,7.0,80,0.00,,,0.00,336.000000,,2013-08-06 16:02:00,
2013-08-06 12:43:00,80.0,67.0,-100.00,SSW,208,4.0,8.0,65,0.00,,,0.00,641.000000,,2013-08-06 16:43:00,
2013-08-06 12:52:00,80.0,67.0,-100.00,SSW,208,4.0,8.0,65,0.00,,,0.00,641.000000,,2013-08-06 16:52:00,
2013-08-06 13:02:00,80.0,67.0,-100.00,SSW,208,4.0,8.0,65,0.00,,,0.00,641.000000,,2013-08-06 17:02:00,
2013-08-06 13:44:00,82.0,71.0,-100.00,South,171,5.0,9.0,70,0.00,,,0.00,618.000000,,2013-08-06 17:44:00,
2013-08-06 13:52:00,82.0,71.0,-100.00,South,171,5.0,9.0,70,0.00,,,0.00,618.000000,,2013-08-06 17:52:00,
2013-08-06 14:01:00,82.0,71.0,-100.00,South,171,5.0,9.0,70,0.00,,,0.00,618.000000,,2013-08-06 18:01:00,
2013-08-06 14:44:00,83.0,72.0,-100.00,SW,215,3.0,9.0,70,0.00,,,0.00,770.000000,,2013-08-06 18:44:00,
2013-08-06 14:52:00,83.0,72.0,-100.00,SW,215,3.0,9.0,70,0.00,,,0.00,770.000000,,2013-08-06 18:52:00,
2013-08-06 15:01:00,83.0,72.0,-100.00,SW,215,3.0,9.0,70,0.00,,,0.00,770.000000,,2013-08-06 19:01:00,
2013-08-06 15:32:00,83.0,72.0,-100.00,South,173,4.0,9.0,69,0.00,,,0.00,631.000000,,2013-08-06 19:32:00,
2013-08-06 15:42:00,83.0,72.0,-100.00,South,173,4.0,9.0,69,0.00,,,0.00,631.000000,,2013-08-06 19:42:00,
2013-08-06 15:52:00,83.0,72.0,-100.00,South,173,4.0,9.0,69,0.00,,,0.00,631.000000,,2013-08-06 19:52:00,
2013-08-06 16:01:00,83.0,72.0,-100.00,South,173,4.0,9.0,69,0.00,,,0.00,631.000000,,2013-08-06 20:01:00,
2013-08-06 16:32:00,83.0,72.0,-100.00,SW,218,2.0,7.0,70,0.00,,,0.00,501.000000,,2013-08-06 20:32:00,
2013-08-06 16:44:00,83.0,72.0,-100.00,SW,218,2.0,7.0,70,0.00,,,0.00,501.000000,,2013-08-06 20:44:00,
2013-08-06 16:52:00,83.0,72.0,-100.00,SW,218,2.0,7.0,70,0.00,,,0.00,501.000000,,2013-08-06 20:52:00,
2013-08-06 17:01:00,83.0,72.0,-100.00,SW,218,2.0,7.0,70,0.00,,,0.00,501.000000,,2013-08-06 21:01:00,
2013-08-06 17:43:00,80.0,75.0,-100.00,WSW,254,3.0,5.0,84,0.03,,,0.03,284.000000,,2013-08-06 21:43:00,
2013-08-06 17:52:00,80.0,75.0,-100.00,WSW,254,3.0,5.0,84,0.03,,,0.03,284.000000,,2013-08-06 21:52:00,
2013-08-06 18:01:00,80.0,75.0,-100.00,WSW,254,3.0,5.0,84,0.03,,,0.03,284.000000,,2013-08-06 22:01:00,
2013-08-06 18:32:00,81.0,74.0,-100.00,NNE,14,1.0,4.0,80,0.00,,,0.03,287.000000,,2013-08-06 22:32:00,
2013-08-06 18:43:00,81.0,74.0,-100.00,NNE,14,1.0,4.0,80,0.00,,,0.03,287.000000,,2013-08-06 22:43:00,
2013-08-06 18:53:00,81.0,74.0,-100.00,NNE,14,1.0,4.0,80,0.00,,,0.03,287.000000,,2013-08-06 22:53:00,
2013-08-06 19:01:00,81.0,74.0,-100.00,NNE,14,1.0,4.0,80,0.00,,,0.03,287.000000,,2013-08-06 23:01:00,
2013-08-06 19:43:00,71.0,68.0,-100.00,NNW,328,7.0,16.0,91,0.31,,,0.34,33.000000,,2013-08-06 23:43:00,
2013-08-06 19:52:00,71.0,68.0,-100.00,NNW,328,7.0,16.0,91,0.31,,,0.34,33.000000,,2013-08-06 23:52:00,
2013-08-06 20:01:00,71.0,68.0,-100.00,NNW,328,7.0,16.0,91,0.31,,,0.34,33.000000,,2013-08-07 00:01:00,
2013-08-06 20:32:00,69.0,68.0,-100.00,ESE,123,6.0,9.0,97,0.03,,,0.37,50.000000,,2013-08-07 00:32:00,
2013-08-06 20:43:00,69.0,68.0,-100.00,ESE,123,6.0,9.0,97,0.03,,,0.37,50.000000,,2013-08-07 00:43:00,
2013-08-06 20:52:00,69.0,68.0,-100.00,ESE,123,6.0,9.0,97,0.03,,,0.37,50.000000,,2013-08-07 00:52:00,
2013-08-06 21:01:00,69.0,68.0,-100.00,ESE,123,6.0,9.0,97,0.03,,,0.37,50.000000,,2013-08-07 01:01:00,
2013-08-06 21:32:00,70.0,68.0,-100.00,SW,228,4.0,7.0,92,0.00,,,0.37,12.000000,,2013-08-07 01:32:00,
2013-08-06 21:43:00,70.0,68.0,-100.00,SW,228,4.0,7.0,92,0.00,,,0.37,12.000000,,2013-08-07 01:43:00,
2013-08-06 21:53:00,70.0,68.0,-100.00,SW,228,4.0,7.0,92,0.00,,,0.37,12.000000,,2013-08-07 01:53:00,
2013-08-06 22:02:00,70.0,68.0,-100.00,SW,228,4.0,7.0,92,0.00,,,0.37,12.000000,,2013-08-07 02:02:00,
2013-08-06 22:33:00,70.0,69.0,-100.00,SW,230,4.0,7.0,96,0.00,,,0.37,0.000000,,2013-08-07 02:33:00,
2013-08-06 22:43:00,70.0,69.0,-100.00,SW,230,4.0,7.0,96,0.00,,,0.37,0.000000,,2013-08-07 02:43:00,
2013-08-06 22:53:00,70.0,69.0,-100.00,SW,230,4.0,7.0,96,0.00,,,0.37,0.000000,,2013-08-07 02:53:00,
2013-08-06 23:01:00,70.0,69.0,-100.00,SW,230,4.0,7.0,96,0.00,,,0.37,0.000000,,2013-08-07 03:01:00,
2013-08-06 23:43:00,71.0,69.0,-100.00,SW,230,4.0,7.0,94,0.00,,,0.37,0.000000,,2013-08-07 03:43:00,
2013-08-06 23:52:00,71.0,69.0,-100.00,SW,230,4.0,7.0,94,0.00,,,0.37,0.000000,,2013-08-07 03:52:00,